Palm Springs, CA

5:11 AM PDT en Octubre 22, 2014 (GMT -0700)
CHINO CANYON | Change Station
CLOSE
Current Station
Estación meteorológica personal
Location: Palm Springs, CA
Altura: 630 ft
Estaciones meteorológicas cercanas

Alt 630 ft 33.85 °N, 116.55 °W | Updated 3 seconds ago

Despejado
Despejado
65.3 ° F
Sensación térmica 65.3 ° F
N
0.0
Viento Variable Viento desde NO
Gusts 0.0 mph

Hoy
Alta -- | Baja -- ° F
--% Posibilidad de precipitaciones
Ayer
Alta -- | Baja -- ° F
Precip. -- pul
6:56 AM 6:03 PM
Creciente menguante, 2% visible
Presión 29.84 pul
Visibilidad 10.0 Millas
Nubes Despejado
Punto de rocío 36 ° F
Humedad 34%
Precipitaciones 0.00 pul
Espesor de la nieve No disponible.
UV 0 de una escala de 12
Polen 3.90 de una escala de 12
Ozono Buena
Flu Activity Sporadic
METAR KPSP 221153Z AUTO 00000KT 10SM CLR 19/08 A2985 RMK AO2 SLP105 T01890083 10267 20189 53004 TSNO $

More Conditions Fewer Conditions

Presión 29.84 pul
Visibilidad 10.0 Millas
Nubes Despejado
Punto de rocío 36 ° F
Humedad 34%
Precipitaciones 0.00 pul
Espesor de la nieve No disponible.
UV 0 de una escala de 12
Polen 3.90 de una escala de 12
Ozono Buena
Flu Activity Sporadic
METAR KPSP 221153Z AUTO 00000KT 10SM CLR 19/08 A2985 RMK AO2 SLP105 T01890083 10267 20189 53004 TSNO $

More Conditions Fewer Conditions

10-Day Weather Forecast

Almanac

Astronomía

Oct. 22, 2014 Salida Puesta
Hora real 6:56 AM PDT 6:03 PM PDT
Crepúsculo civil 6:31 AM PDT 6:29 PM PDT
Crepúsculo náutico 6:02 AM PDT 6:58 PM PDT
Crepúsculo astronómico 5:33 AM PDT 7:27 PM PDT
Luna 5:45 AM PDT 5:30 PM PDT
Horas de luz 11h 57m
Horas de luz
11h 06m
Tomorrow will be 1m 58s shorter.
Creciente menguante, 2% of the Moon is Illuminated
Hoy
Creciente menguante
Oct 23
Nueva
Oct 30
Cuarto creciente
Nov 6
Luna llena
Nov 14
Cuarto menguante

Extremos de hoy

Máximos del estado Bajos del estado

Community

WunderPhotos

Upload Photos

1,763,906 ¡fotos cargadas!

Nearby

Calidad del aire

  Calidad del aire Índice AQ Contaminante
Ayer Moderada
OZONE
Ayer Buena
PM10
Real Buena
OZONE
Miércoles Moderada
OZONE
Miércoles Buena
PM10
Miércoles Buena
CO
Miércoles Buena
NO2

Grosos de nieve

Estación Profundido Altura
Virginia Lakes Ridge 0 in 9200 ft
Leavitt Lake 1 in 9400 ft
Leavitt Meadows 1 in 7200 ft
Sonora Pass 0 in 8800 ft
Summit Meadow 1 in 9122 ft

Actividad de terremotos

Ciudad Distance Mag. Tiempo y dato
Delta, Mexico 124 Millas 2.5 8:53 PM PDT
2014-10-21
Magnitud mínima muestra es 2,5.

Temperaturas de aguas costeras

Lugar Temperatura
Sin partes meteorológicos de las estaciones

Estaciones meteorológicas cercanas